createdAt,value
2023-01-21T00:01:09.063Z,12.33
2023-01-21T00:03:36.937Z,10.10
2023-01-21T00:06:05.252Z,13.20
2023-01-21T00:08:33.041Z,10.97
2023-01-21T00:11:06.249Z,15.50
2023-01-21T00:13:34.687Z,11.77
2023-01-21T00:16:04.637Z,10.27
2023-01-21T00:18:32.526Z,9.40
2023-01-21T00:21:00.503Z,9.27
2023-01-21T00:23:28.529Z,11.53
2023-01-21T00:25:59.136Z,11.40
2023-01-21T00:28:29.290Z,12.50
2023-01-21T00:30:59.239Z,11.93
2023-01-21T00:33:29.097Z,13.10
2023-01-21T00:36:01.302Z,15.73
2023-01-21T00:38:29.395Z,12.77
2023-01-21T00:41:01.623Z,11.90
2023-01-21T00:43:29.955Z,12.00
2023-01-21T00:45:57.909Z,8.53
2023-01-21T00:48:26.041Z,12.47
2023-01-21T00:50:56.068Z,7.93
2023-01-21T00:53:24.336Z,10.93
2023-01-21T00:55:52.176Z,10.73
2023-01-21T00:58:20.103Z,11.67
2023-01-21T01:00:48.095Z,12.97
2023-01-21T01:03:15.874Z,12.07
2023-01-21T01:05:43.637Z,7.97
2023-01-21T01:08:12.735Z,10.43
2023-01-21T01:10:40.505Z,17.27
2023-01-21T01:13:08.321Z,11.00
2023-01-21T01:15:36.212Z,10.73
2023-01-21T01:18:04.060Z,13.73
2023-01-21T01:20:31.828Z,13.50
2023-01-21T01:22:59.587Z,10.30
2023-01-21T01:25:28.693Z,11.97
2023-01-21T01:27:56.436Z,12.87
2023-01-21T01:30:24.225Z,15.20
2023-01-21T01:32:52.014Z,12.47
2023-01-21T01:35:19.784Z,16.67
2023-01-21T01:37:47.543Z,13.33
2023-01-21T01:40:16.002Z,10.80
2023-01-21T01:42:45.258Z,12.47
2023-01-21T01:45:20.148Z,11.30
2023-01-21T01:47:58.060Z,13.00
2023-01-21T01:50:29.523Z,9.87
2023-01-21T01:53:00.829Z,9.87
2023-01-21T01:55:30.072Z,10.50
2023-01-21T01:57:59.992Z,10.40
2023-01-21T02:00:28.580Z,9.63
2023-01-21T02:03:17.374Z,9.10
2023-01-21T02:05:45.923Z,9.60
2023-01-21T02:08:13.839Z,9.10
2023-01-21T02:10:42.734Z,9.37
2023-01-21T02:13:12.762Z,8.30
2023-01-21T02:15:52.930Z,9.80
2023-01-21T02:18:29.725Z,8.43
2023-01-21T02:21:35.827Z,8.10
2023-01-21T02:24:45.499Z,7.97
2023-01-21T02:27:41.635Z,8.63
2023-01-21T02:30:35.457Z,8.17
2023-01-21T02:33:27.967Z,7.20
2023-01-21T02:36:08.525Z,7.03
2023-01-21T02:38:41.951Z,7.07
2023-01-21T02:41:20.778Z,8.73
2023-01-21T02:43:57.864Z,8.07
2023-01-21T02:46:32.467Z,10.27
2023-01-21T02:49:05.713Z,11.40
2023-01-21T02:51:33.590Z,7.27
2023-01-21T02:54:01.371Z,9.67
2023-01-21T02:56:29.157Z,10.97
2023-01-21T02:59:01.873Z,8.60
2023-01-21T03:01:42.918Z,10.50
2023-01-21T03:04:36.469Z,8.30
2023-01-21T03:07:08.516Z,11.10
2023-01-21T03:09:37.144Z,10.33
2023-01-21T03:12:17.880Z,10.87
2023-01-21T03:15:10.195Z,10.17
2023-01-21T03:17:42.732Z,9.27
2023-01-21T03:20:15.954Z,8.07
2023-01-21T03:22:45.273Z,9.73
2023-01-21T03:25:14.625Z,9.57
2023-01-21T03:27:45.750Z,11.87
2023-01-21T03:30:16.773Z,9.07
2023-01-21T03:32:49.094Z,7.00
2023-01-21T03:35:21.766Z,10.47
2023-01-21T03:37:54.148Z,7.40
2023-01-21T03:40:24.468Z,6.33
2023-01-21T03:42:56.131Z,9.87
2023-01-21T03:45:33.922Z,10.07
2023-01-21T03:48:09.949Z,9.53
2023-01-21T03:50:42.054Z,6.73
2023-01-21T03:53:09.932Z,9.90
2023-01-21T03:55:37.735Z,8.27
2023-01-21T03:58:05.515Z,9.53
2023-01-21T04:00:33.312Z,9.90
2023-01-21T04:03:01.101Z,8.67
2023-01-21T04:05:28.880Z,6.47
2023-01-21T04:07:57.971Z,10.40
2023-01-21T04:10:25.709Z,6.23
2023-01-21T04:12:53.448Z,7.40
2023-01-21T04:15:21.218Z,10.93
2023-01-21T04:17:48.966Z,13.73
2023-01-21T04:20:17.072Z,7.73
2023-01-21T04:22:45.147Z,7.27
2023-01-21T04:25:14.309Z,8.03
2023-01-21T04:27:42.049Z,7.77
2023-01-21T04:30:10.910Z,9.57
2023-01-21T04:32:38.655Z,9.43
2023-01-21T04:35:07.288Z,9.60
2023-01-21T04:37:35.027Z,9.43
2023-01-21T04:40:02.783Z,7.90
2023-01-21T04:42:31.887Z,6.27
2023-01-21T04:44:59.637Z,8.53
2023-01-21T04:47:27.430Z,10.23
2023-01-21T04:49:55.247Z,9.90
2023-01-21T04:52:23.046Z,7.20
2023-01-21T04:54:50.794Z,9.50
2023-01-21T04:57:18.527Z,8.57
2023-01-21T04:59:47.606Z,9.13
2023-01-21T05:02:15.399Z,8.97
2023-01-21T05:04:43.165Z,7.63
2023-01-21T05:07:11.683Z,8.53
2023-01-21T05:09:39.499Z,7.27
2023-01-21T05:12:07.773Z,9.63
2023-01-21T05:14:36.018Z,11.03
2023-01-21T05:17:05.470Z,8.27
2023-01-21T05:19:33.255Z,6.17
2023-01-21T05:22:01.034Z,10.73
2023-01-21T05:24:28.759Z,11.97
2023-01-21T05:26:56.533Z,10.07
2023-01-21T05:29:24.271Z,7.20
2023-01-21T05:31:52.038Z,11.73
2023-01-21T05:34:21.202Z,10.27
2023-01-21T05:36:48.937Z,8.80
2023-01-21T05:39:16.768Z,10.73
2023-01-21T05:41:45.083Z,8.60
2023-01-21T05:44:12.982Z,10.33
2023-01-21T05:46:40.737Z,9.23
2023-01-21T05:49:08.489Z,8.87
2023-01-21T05:51:37.590Z,9.87
2023-01-21T05:54:05.660Z,9.13
2023-01-21T05:56:33.456Z,7.17
2023-01-21T05:59:01.252Z,9.17
2023-01-21T06:01:29.145Z,6.60
2023-01-21T06:03:56.967Z,11.47
2023-01-21T06:06:24.750Z,7.67
2023-01-21T06:08:53.888Z,7.10
2023-01-21T06:11:21.650Z,7.47
2023-01-21T06:13:49.402Z,7.63
2023-01-21T06:16:17.140Z,7.73
2023-01-21T06:18:45.905Z,7.70
2023-01-21T06:21:13.681Z,8.50
2023-01-21T06:23:41.444Z,6.37
2023-01-21T06:26:10.620Z,6.37
2023-01-21T06:28:38.352Z,7.47
2023-01-21T06:31:06.499Z,29.10
2023-01-21T06:33:34.293Z,13.23
2023-01-21T06:36:02.165Z,18.40
2023-01-21T06:38:29.905Z,22.73
2023-01-21T06:40:57.652Z,23.57
2023-01-21T06:43:26.755Z,16.57
2023-01-21T06:45:54.704Z,7.80
2023-01-21T06:48:22.542Z,7.37
2023-01-21T06:50:50.296Z,7.93
2023-01-21T06:53:18.079Z,13.47
2023-01-21T06:55:47.394Z,18.10
2023-01-21T06:58:15.179Z,17.73
2023-01-21T07:00:44.488Z,20.90
2023-01-21T07:03:12.366Z,25.27
2023-01-21T07:05:40.129Z,17.57
2023-01-21T07:08:07.851Z,16.90
2023-01-21T07:10:35.618Z,20.93
2023-01-21T07:13:03.347Z,20.77
2023-01-21T07:15:31.644Z,23.17
2023-01-21T07:18:00.741Z,22.17
2023-01-21T07:20:28.639Z,33.43
2023-01-21T07:22:56.490Z,28.93
2023-01-21T07:25:24.317Z,29.03
2023-01-21T07:27:52.098Z,18.37
2023-01-21T07:30:21.191Z,20.73
2023-01-21T07:32:49.416Z,22.10
2023-01-21T07:35:18.939Z,22.73
2023-01-21T07:37:46.809Z,19.37
2023-01-21T07:40:14.746Z,12.57
2023-01-21T07:42:42.530Z,19.50
2023-01-21T07:45:11.095Z,21.13
2023-01-21T07:47:38.839Z,27.47
2023-01-21T07:50:08.688Z,30.83
2023-01-21T07:52:37.973Z,30.97
2023-01-21T07:55:07.362Z,36.77
2023-01-21T07:57:35.763Z,33.33
2023-01-21T08:00:03.618Z,33.93
2023-01-21T08:02:31.441Z,23.40
2023-01-21T08:04:59.289Z,25.53
2023-01-21T08:07:27.083Z,22.77
2023-01-21T08:09:56.192Z,55.77
2023-01-21T08:12:26.361Z,36.90
2023-01-21T08:14:54.978Z,41.40
2023-01-21T08:17:22.743Z,42.43
2023-01-21T08:19:50.511Z,36.37
2023-01-21T08:22:18.239Z,43.63
2023-01-21T08:24:46.057Z,46.57
2023-01-21T08:27:15.130Z,64.90
2023-01-21T08:29:42.888Z,53.07
2023-01-21T08:32:10.665Z,47.63
2023-01-21T08:34:38.521Z,57.63
2023-01-21T08:37:06.268Z,32.13
2023-01-21T08:39:34.045Z,30.13
2023-01-21T08:42:01.767Z,31.37
2023-01-21T08:44:30.880Z,28.13
2023-01-21T08:46:58.660Z,25.00
2023-01-21T08:49:26.418Z,28.37
2023-01-21T08:51:54.266Z,27.47
2023-01-21T08:54:22.016Z,24.67
2023-01-21T08:56:49.782Z,24.53
2023-01-21T08:59:17.561Z,21.97
2023-01-21T09:01:46.668Z,21.43
2023-01-21T09:04:14.440Z,17.00
2023-01-21T09:06:42.198Z,15.53
2023-01-21T09:09:11.900Z,18.83
2023-01-21T09:11:39.691Z,17.40
2023-01-21T09:14:07.437Z,16.77
2023-01-21T09:16:36.332Z,18.73
2023-01-21T09:19:05.610Z,21.87
2023-01-21T09:21:35.701Z,17.37
2023-01-21T09:24:03.622Z,18.43
2023-01-21T09:26:31.373Z,18.53
2023-01-21T09:29:00.431Z,19.97
2023-01-21T09:31:30.726Z,23.13
2023-01-21T09:34:00.549Z,24.67
2023-01-21T09:36:30.959Z,27.60
2023-01-21T09:38:59.369Z,24.70
2023-01-21T09:41:30.278Z,22.53
2023-01-21T09:44:04.227Z,27.60
2023-01-21T09:46:41.682Z,24.97
2023-01-21T09:49:15.949Z,21.50
2023-01-21T09:51:53.121Z,29.30
2023-01-21T09:54:26.574Z,22.70
2023-01-21T09:57:09.249Z,25.60
2023-01-21T09:59:50.455Z,19.97
2023-01-21T10:02:26.983Z,28.27
2023-01-21T10:05:06.700Z,31.27
2023-01-21T10:07:43.097Z,26.77
2023-01-21T10:10:21.312Z,31.27
2023-01-21T10:13:02.932Z,24.57
2023-01-21T10:15:47.474Z,25.13
2023-01-21T10:18:19.010Z,21.43
2023-01-21T10:20:51.752Z,22.43
2023-01-21T10:23:25.853Z,22.20
2023-01-21T10:25:53.687Z,25.53
2023-01-21T10:28:24.560Z,29.40
2023-01-21T10:30:54.131Z,27.07
2023-01-21T10:33:24.354Z,32.97
2023-01-21T10:36:16.286Z,24.13
2023-01-21T10:38:53.230Z,25.77
2023-01-21T10:41:32.585Z,25.33
2023-01-21T10:44:10.107Z,27.80
2023-01-21T10:46:45.990Z,30.30
2023-01-21T10:49:26.451Z,31.67
2023-01-21T10:52:01.680Z,28.93
2023-01-21T10:54:44.821Z,28.43
2023-01-21T10:57:27.656Z,28.20
2023-01-21T10:59:59.306Z,33.13
2023-01-21T11:02:31.155Z,27.70
2023-01-21T11:05:02.173Z,24.83
2023-01-21T11:07:35.795Z,34.10
2023-01-21T11:10:09.885Z,37.63
2023-01-21T11:12:37.643Z,36.67
2023-01-21T11:15:14.881Z,29.20
2023-01-21T11:17:45.277Z,33.33
2023-01-21T11:20:22.132Z,42.23
2023-01-21T11:22:51.063Z,30.40
2023-01-21T11:25:37.260Z,34.70
2023-01-21T11:28:05.579Z,30.23
2023-01-21T11:30:50.040Z,35.30
2023-01-21T11:33:26.451Z,37.93
2023-01-21T11:35:56.171Z,34.63
2023-01-21T11:38:33.068Z,33.23
2023-01-21T11:41:04.706Z,41.00
2023-01-21T11:43:43.101Z,27.03
2023-01-21T11:46:28.194Z,22.03
2023-01-21T11:48:57.670Z,30.27
2023-01-21T11:51:25.578Z,28.20
2023-01-21T11:54:13.080Z,28.03
2023-01-21T11:56:44.201Z,26.07
2023-01-21T11:59:18.536Z,23.50
2023-01-21T12:01:52.385Z,27.30
2023-01-21T12:04:20.333Z,24.17
2023-01-21T12:06:51.595Z,30.73
2023-01-21T12:09:21.176Z,34.83
2023-01-21T12:12:10.981Z,27.80
2023-01-21T12:14:51.930Z,30.10
2023-01-21T12:17:32.574Z,32.27
2023-01-21T12:20:21.880Z,30.73
2023-01-21T12:23:04.727Z,27.67
2023-01-21T12:25:41.516Z,32.80
2023-01-21T12:28:35.382Z,35.57
2023-01-21T12:31:12.747Z,38.30
2023-01-21T12:33:49.513Z,35.77
2023-01-21T12:36:22.641Z,34.40
2023-01-21T12:38:58.705Z,30.33
2023-01-21T12:41:30.774Z,28.03
2023-01-21T12:44:07.217Z,31.57
2023-01-21T12:46:40.925Z,26.43
2023-01-21T12:49:16.133Z,35.37
2023-01-21T12:51:46.461Z,30.40
2023-01-21T12:54:19.270Z,31.50
2023-01-21T12:56:54.911Z,32.17
2023-01-21T12:59:31.212Z,32.27
2023-01-21T13:02:05.469Z,30.73
2023-01-21T13:04:45.762Z,26.00
2023-01-21T13:07:24.462Z,31.90
2023-01-21T13:09:57.141Z,26.60
2023-01-21T13:12:27.180Z,27.53
2023-01-21T13:15:02.793Z,32.03
2023-01-21T13:17:34.789Z,28.70
2023-01-21T13:20:13.161Z,27.40
2023-01-21T13:22:46.034Z,31.53
2023-01-21T13:25:24.296Z,33.53
2023-01-21T13:27:59.021Z,34.50
2023-01-21T13:30:35.570Z,33.23
2023-01-21T13:33:13.627Z,37.07
2023-01-21T13:35:51.278Z,36.20
2023-01-21T13:38:26.331Z,35.90
2023-01-21T13:41:02.061Z,41.80
2023-01-21T13:43:54.346Z,32.07
2023-01-21T13:46:42.681Z,39.07
2023-01-21T13:49:52.832Z,27.07
2023-01-21T13:52:26.264Z,31.20
2023-01-21T13:55:17.644Z,31.63
2023-01-21T13:58:02.427Z,46.77
2023-01-21T14:00:34.649Z,43.03
2023-01-21T14:03:14.559Z,33.13
2023-01-21T14:05:49.267Z,27.50
2023-01-21T14:08:24.483Z,20.73
2023-01-21T14:10:56.593Z,27.47
2023-01-21T14:13:50.602Z,23.07
2023-01-21T14:17:00.955Z,28.27
2023-01-21T14:20:07.723Z,34.97
2023-01-21T14:22:59.213Z,23.33
2023-01-21T14:25:37.491Z,13.57
2023-01-21T14:28:15.998Z,21.83
2023-01-21T14:30:48.952Z,24.63
2023-01-21T14:33:21.255Z,17.07
2023-01-21T14:35:56.795Z,20.63
2023-01-21T14:38:37.885Z,20.37
2023-01-21T14:41:08.006Z,21.07
2023-01-21T14:43:50.807Z,24.53
2023-01-21T14:46:27.046Z,19.57
2023-01-21T14:49:00.184Z,17.33
2023-01-21T14:51:31.379Z,22.60
2023-01-21T14:54:02.294Z,21.10
2023-01-21T14:56:32.643Z,23.83
2023-01-21T14:59:03.333Z,16.50
2023-01-21T15:01:40.364Z,19.23
2023-01-21T15:04:20.971Z,23.63
2023-01-21T15:06:52.834Z,18.23
2023-01-21T15:09:25.728Z,23.30
2023-01-21T15:11:57.985Z,20.63
2023-01-21T15:14:27.933Z,18.93
2023-01-21T15:16:55.732Z,13.27
2023-01-21T15:19:26.767Z,18.23
2023-01-21T15:22:19.293Z,20.97
2023-01-21T15:25:26.855Z,14.23
2023-01-21T15:28:35.069Z,19.00
2023-01-21T15:31:06.282Z,22.07
2023-01-21T15:33:39.911Z,23.53
2023-01-21T15:36:19.555Z,21.80
2023-01-21T15:38:49.629Z,25.77
2023-01-21T15:41:27.921Z,24.00
2023-01-21T15:44:16.661Z,24.70
2023-01-21T15:46:55.288Z,27.87
2023-01-21T15:49:37.036Z,29.50
2023-01-21T15:52:26.355Z,19.53
2023-01-21T15:55:04.253Z,23.87
2023-01-21T15:57:44.304Z,20.93
2023-01-21T16:00:26.866Z,24.27
2023-01-21T16:03:01.259Z,26.83
2023-01-21T16:05:44.416Z,19.97
2023-01-21T16:08:24.853Z,23.47
2023-01-21T16:11:03.189Z,17.43
2023-01-21T16:13:44.103Z,23.37
2023-01-21T16:16:17.974Z,23.90
2023-01-21T16:18:54.518Z,22.33
2023-01-21T16:21:25.513Z,20.00
2023-01-21T16:23:56.987Z,21.37
2023-01-21T16:26:27.814Z,23.47
2023-01-21T16:28:55.970Z,23.43
2023-01-21T16:31:24.231Z,20.33
2023-01-21T16:33:53.625Z,19.33
2023-01-21T16:36:21.567Z,20.83
2023-01-21T16:38:49.479Z,20.07
2023-01-21T16:41:24.644Z,20.87
2023-01-21T16:43:56.459Z,14.33
2023-01-21T16:46:27.051Z,18.40
2023-01-21T16:48:58.253Z,17.23
2023-01-21T16:51:29.678Z,19.40
2023-01-21T16:54:25.306Z,19.83
2023-01-21T16:56:56.573Z,20.47
2023-01-21T16:59:28.083Z,13.60
2023-01-21T17:01:57.371Z,23.43
2023-01-21T17:04:25.376Z,17.90
2023-01-21T17:06:53.940Z,18.03
2023-01-21T17:09:30.595Z,19.33
2023-01-21T17:12:02.143Z,21.73
2023-01-21T17:14:32.431Z,18.77
2023-01-21T17:17:01.642Z,18.47
2023-01-21T17:19:33.601Z,19.80
2023-01-21T17:22:03.886Z,20.43
2023-01-21T17:24:37.212Z,19.73
2023-01-21T17:27:10.912Z,23.33
2023-01-21T17:29:40.053Z,19.07
2023-01-21T17:32:24.422Z,20.53
2023-01-21T17:35:08.918Z,20.23
2023-01-21T17:37:45.603Z,20.87
2023-01-21T17:40:27.308Z,17.73
2023-01-21T17:42:55.477Z,18.20
2023-01-21T17:45:30.690Z,21.27
2023-01-21T17:48:11.773Z,24.47
2023-01-21T17:50:46.295Z,19.53
2023-01-21T17:53:20.709Z,18.80
2023-01-21T17:55:57.658Z,18.10
2023-01-21T17:58:46.650Z,21.93
2023-01-21T18:01:17.329Z,18.57
2023-01-21T18:03:45.145Z,17.10
2023-01-21T18:06:23.430Z,18.80
2023-01-21T18:08:52.713Z,20.47
2023-01-21T18:11:21.053Z,18.43
2023-01-21T18:13:49.978Z,19.07
2023-01-21T18:16:19.194Z,18.00
2023-01-21T18:18:47.128Z,17.00
2023-01-21T18:21:19.802Z,17.97
2023-01-21T18:23:47.685Z,14.93
2023-01-21T18:26:22.703Z,13.80
2023-01-21T18:28:50.460Z,15.80
2023-01-21T18:31:19.755Z,17.33
2023-01-21T18:33:47.619Z,15.60
2023-01-21T18:36:15.388Z,21.17
2023-01-21T18:38:43.256Z,16.57
2023-01-21T18:41:13.361Z,19.17
2023-01-21T18:43:41.877Z,15.70
2023-01-21T18:46:12.681Z,16.30
2023-01-21T18:48:42.807Z,15.80
2023-01-21T18:51:10.885Z,18.70
2023-01-21T18:53:38.714Z,18.67
2023-01-21T18:56:10.520Z,19.47
2023-01-21T18:58:38.501Z,16.03
2023-01-21T19:01:21.411Z,13.73
2023-01-21T19:03:53.664Z,16.33
2023-01-21T19:06:22.533Z,19.50
2023-01-21T19:08:50.398Z,18.53
2023-01-21T19:11:18.182Z,13.33
2023-01-21T19:13:46.053Z,13.27
2023-01-21T19:16:18.631Z,15.63
2023-01-21T19:18:47.026Z,16.63
2023-01-21T19:21:16.231Z,16.60
2023-01-21T19:23:43.998Z,18.93
2023-01-21T19:26:14.233Z,15.60
2023-01-21T19:28:42.378Z,12.80
2023-01-21T19:31:10.282Z,16.87
2023-01-21T19:33:38.119Z,14.83
2023-01-21T19:36:14.988Z,19.80
2023-01-21T19:38:47.111Z,19.03
2023-01-21T19:41:14.878Z,17.77
2023-01-21T19:43:42.967Z,16.50
2023-01-21T19:46:12.457Z,18.37
2023-01-21T19:48:41.017Z,17.97
2023-01-21T19:51:09.231Z,17.90
2023-01-21T19:53:37.169Z,14.63
2023-01-21T19:56:07.782Z,13.23
2023-01-21T19:58:35.732Z,12.77
2023-01-21T20:01:03.585Z,13.93
2023-01-21T20:03:31.424Z,17.30
2023-01-21T20:06:02.988Z,16.63
2023-01-21T20:08:32.260Z,15.37
2023-01-21T20:11:00.147Z,15.77
2023-01-21T20:13:32.174Z,12.33
2023-01-21T20:16:03.646Z,17.37
2023-01-21T20:18:33.428Z,17.97
2023-01-21T20:21:01.302Z,16.93
2023-01-21T20:23:32.447Z,18.90
2023-01-21T20:26:00.900Z,21.67
2023-01-21T20:28:37.153Z,16.57
2023-01-21T20:31:07.149Z,18.67
2023-01-21T20:33:36.278Z,19.23
2023-01-21T20:36:06.862Z,17.27
2023-01-21T20:38:36.253Z,18.30
2023-01-21T20:41:06.349Z,19.33
2023-01-21T20:43:35.442Z,19.03
2023-01-21T20:46:06.373Z,16.33
2023-01-21T20:48:37.162Z,18.97
2023-01-21T20:51:05.426Z,17.97
2023-01-21T20:53:33.561Z,18.87
2023-01-21T20:56:05.418Z,22.30
2023-01-21T20:58:34.591Z,22.23
2023-01-21T21:01:02.377Z,18.57
2023-01-21T21:03:30.133Z,20.90
2023-01-21T21:05:57.906Z,18.33
2023-01-21T21:08:26.294Z,23.87
2023-01-21T21:10:55.354Z,28.87
2023-01-21T21:13:23.099Z,22.03
2023-01-21T21:15:52.779Z,24.60
2023-01-21T21:18:20.588Z,22.53
2023-01-21T21:20:48.343Z,17.37
2023-01-21T21:23:16.100Z,19.73
2023-01-21T21:25:46.332Z,22.60
2023-01-21T21:28:16.525Z,25.40
2023-01-21T21:30:44.842Z,24.30
2023-01-21T21:33:19.873Z,25.73
2023-01-21T21:35:47.790Z,25.87
2023-01-21T21:38:18.963Z,22.13
2023-01-21T21:40:47.620Z,24.17
2023-01-21T21:43:32.434Z,23.50
2023-01-21T21:46:22.082Z,21.90
2023-01-21T21:48:51.886Z,26.77
2023-01-21T21:51:21.695Z,25.53
2023-01-21T21:53:49.844Z,25.27
2023-01-21T21:56:19.185Z,24.53
2023-01-21T21:58:47.749Z,28.37
2023-01-21T22:01:17.653Z,22.67
2023-01-21T22:03:45.836Z,24.70
2023-01-21T22:06:15.612Z,25.53
2023-01-21T22:08:44.255Z,25.00
2023-01-21T22:11:15.156Z,24.80
2023-01-21T22:13:43.516Z,21.27
2023-01-21T22:16:14.027Z,24.00
2023-01-21T22:18:42.204Z,24.77
2023-01-21T22:21:14.486Z,20.70
2023-01-21T22:23:42.739Z,23.07
2023-01-21T22:26:13.435Z,24.40
2023-01-21T22:28:42.204Z,19.33
2023-01-21T22:31:12.580Z,21.40
2023-01-21T22:33:40.725Z,20.40
2023-01-21T22:36:11.057Z,19.73
2023-01-21T22:38:40.995Z,19.07
2023-01-21T22:41:10.331Z,18.60
2023-01-21T22:43:41.716Z,19.70
2023-01-21T22:46:12.045Z,22.47
2023-01-21T22:48:41.395Z,21.80
2023-01-21T22:51:12.116Z,21.53
2023-01-21T22:53:41.405Z,18.73
2023-01-21T22:56:09.351Z,20.50
2023-01-21T22:58:37.637Z,19.13
2023-01-21T23:01:06.204Z,18.90
2023-01-21T23:03:34.107Z,21.37
2023-01-21T23:06:06.165Z,20.43
2023-01-21T23:08:34.562Z,18.10
2023-01-21T23:11:05.439Z,22.13
2023-01-21T23:13:33.849Z,17.33
2023-01-21T23:16:02.217Z,22.97
2023-01-21T23:18:30.496Z,19.43
2023-01-21T23:20:58.253Z,23.73
2023-01-21T23:23:26.189Z,22.63
2023-01-21T23:25:54.504Z,23.40
2023-01-21T23:28:24.452Z,23.20
2023-01-21T23:30:52.330Z,16.97
2023-01-21T23:33:20.139Z,23.37
2023-01-21T23:35:55.219Z,22.13
2023-01-21T23:38:23.267Z,24.20
2023-01-21T23:40:51.030Z,18.20
2023-01-21T23:43:18.777Z,18.30
2023-01-21T23:45:47.923Z,15.97
2023-01-21T23:48:15.711Z,21.73
2023-01-21T23:50:43.492Z,19.93
2023-01-21T23:53:11.253Z,19.93
2023-01-21T23:55:39.002Z,19.07
2023-01-21T23:58:06.778Z,18.27
